Time;durP1;ratioP1;P1;durP2;ratioP2;P2;SDS_P1;SDS_P2;PMS_P1;PMS_P2;Temp;Humidity;BMP_temperature;BMP_pressure;BME280_temperature;BME280_humidity;BME280_pressure;Samples;Min_cycle;Max_cycle;Signal;HPM_P1;HPM_P2
2023/10/12 00:00:24;;;;;;;;;;;;;;;12.94;72.31;100597.00;344824;28;1274;-74
2023/10/12 00:00:36;;;;;;;;;;;;;;;12.96;72.26;100597.78;344731;28;1125;-74
2023/10/12 00:00:48;;;;;;;;;;;;;;;12.95;72.24;100592.59;344795;28;1241;-74
2023/10/12 00:01:01;;;;;;;;;;;;;;;12.97;72.31;100599.50;343317;28;1502;-74
2023/10/12 00:01:11;;;;;;;;;;;;;;;12.95;73.02;100598.69;343353;28;1192;-74
2023/10/12 00:01:24;;;;;;;;;;;;;;;12.94;72.97;100590.88;344706;28;1431;-74
2023/10/12 00:01:37;;;;;;;;;;;;;;;12.93;72.52;100597.91;344871;28;884;-74
2023/10/12 00:01:59;;;;;;;;;;;;;;;12.92;72.64;100597.94;342111;28;1419;-74
2023/10/12 00:02:09;;;;;;;;;;;;;;;12.91;72.50;100591.84;342072;28;828;-74
2023/10/12 00:02:26;;;;;;;;;;;;;;;12.90;72.79;100595.38;343420;28;1210;-75
2023/10/12 00:02:36;;;;;;;;;;;;;;;12.91;72.74;100597.09;346743;28;1367;-75
2023/10/12 00:02:48;;;;;;;;;;;;;;;12.92;72.80;100597.94;346084;28;1556;-75
2023/10/12 00:02:58;;;;;;;;;;;;;;;12.92;72.91;100596.19;344729;28;1181;-75
2023/10/12 00:03:12;;;;;;;;;;;;;;;12.94;72.93;100586.47;344657;28;1345;-75
2023/10/12 00:03:25;;;;;;;;;;;;;;;12.95;72.92;100593.44;344705;28;1684;-74
2023/10/12 00:03:35;;;;;;;;;;;;;;;12.94;73.01;100586.47;343099;28;2495;-74
2023/10/12 00:03:45;;;;;;;;;;;;;;;12.94;72.96;100591.72;343933;28;4114;-74
2023/10/12 00:03:58;;;;;;;;;;;;;;;12.96;73.05;100592.53;343179;28;2766;-74
2023/10/12 00:04:11;;;;;;;;;;;;;;;12.99;72.96;100589.81;344795;28;1374;-75
2023/10/12 00:04:23;;;;;;;;;;;;;;;13.00;72.94;100596.75;343258;28;2897;-74
2023/10/12 00:04:50;;;;;;;;;;;;;;;13.00;72.73;100594.13;343445;28;939;-74
2023/10/12 00:05:00;;;;;;;;;;;;;;;13.00;72.98;100594.13;342083;28;1287;-74
2023/10/12 00:05:17;;;;;;;;;;;;;;;13.00;73.05;100594.13;343192;28;1073;-74
2023/10/12 00:05:29;;;;;;;;;;;;;;;13.00;73.22;100594.13;341402;28;1003;-74
2023/10/12 00:05:45;;;;;;;;;;;;;;;12.98;72.98;100595.97;343307;28;1259;-74
2023/10/12 00:05:59;;;;;;;;;;;;;;;12.98;72.79;100593.34;341923;28;1313;-74
2023/10/12 00:06:10;;;;;;;;;;;;;;;12.94;72.92;100591.72;341673;28;1261;-74
2023/10/12 00:06:20;;;;;;;;;;;;;;;12.94;72.74;100593.50;342100;28;1348;-74
2023/10/12 00:06:36;;;;;;;;;;;;;;;12.93;73.20;100594.41;342037;28;1445;-74
2023/10/12 00:06:47;;;;;;;;;;;;;;;12.94;72.82;100597.00;342617;28;1379;-74
2023/10/12 00:06:58;;;;;;;;;;;;;;;12.93;72.95;100590.00;342018;28;1213;-74
2023/10/12 00:07:42;;;;;;;;;;;;;;;12.91;72.23;100586.59;344140;28;1264;-74
2023/10/12 00:07:55;;;;;;;;;;;;;;;12.92;72.91;100592.69;343842;28;1604;-74
2023/10/12 00:08:10;;;;;;;;;;;;;;;12.92;73.10;100596.19;343640;28;1914;-75
2023/10/12 00:08:53;;;;;;;;;;;;;;;12.90;73.01;100594.50;346050;28;1519;-75
2023/10/12 00:08:57;;;;;;;;;;;;;;;12.88;73.45;100591.09;339485;28;1224;-74
2023/10/12 00:09:17;;;;;;;;;;;;;;;12.86;73.56;100599.00;340755;28;1377;-74
2023/10/12 00:09:27;;;;;;;;;;;;;;;12.86;73.82;100585.03;339161;29;1950;-74
2023/10/12 00:09:37;;;;;;;;;;;;;;;12.83;73.89;100585.97;335232;29;1684;-73
2023/10/12 00:10:02;;;;;;;;;;;;;;;12.85;73.72;100594.66;332761;29;2104;-73
2023/10/12 00:10:26;;;;;;;;;;;;;;;12.84;73.64;100585.06;331064;29;1642;-73
2023/10/12 00:10:44;;;;;;;;;;;;;;;12.82;73.52;100597.41;330918;29;1386;-74
2023/10/12 00:10:55;;;;;;;;;;;;;;;12.84;73.52;100587.69;328788;29;1244;-74
2023/10/12 00:11:07;;;;;;;;;;;;;;;12.85;73.36;100585.94;328908;29;1677;-74
2023/10/12 00:11:20;;;;;;;;;;;;;;;12.85;73.35;100586.78;330182;29;2085;-74
2023/10/12 00:11:36;;;;;;;;;;;;;;;12.83;73.38;100582.50;328135;30;820;-74
2023/10/12 00:11:56;;;;;;;;;;;;;;;12.82;73.45;100592.16;325665;30;1294;-74
2023/10/12 00:12:09;;;;;;;;;;;;;;;12.82;73.68;100584.25;325190;30;2693;-74
2023/10/12 00:12:24;;;;;;;;;;;;;;;12.81;73.81;100582.56;324625;30;2845;-74
2023/10/12 00:12:35;;;;;;;;;;;;;;;12.81;73.52;100587.81;324498;30;1790;-74
2023/10/12 00:12:50;;;;;;;;;;;;;;;12.79;73.44;100587.00;325714;30;812;-74
2023/10/12 00:13:00;;;;;;;;;;;;;;;12.81;73.70;100590.44;322948;30;3148;-73
2023/10/12 00:13:14;;;;;;;;;;;;;;;12.82;73.79;100575.53;322845;30;3853;-74
2023/10/12 00:13:29;;;;;;;;;;;;;;;12.82;73.40;100581.63;321312;30;2543;-74
2023/10/12 00:13:42;;;;;;;;;;;;;;;12.84;73.62;100579.81;318080;30;2930;-74
2023/10/12 00:13:52;;;;;;;;;;;;;;;12.86;73.62;100578.00;316653;31;3004;-74
2023/10/12 00:14:03;;;;;;;;;;;;;;;12.86;73.73;100585.88;314937;30;3313;-74
2023/10/12 00:14:14;;;;;;;;;;;;;;;12.87;73.80;100584.97;315148;31;1275;-74
2023/10/12 00:14:29;;;;;;;;;;;;;;;12.85;73.56;100575.41;315996;31;3703;-74
2023/10/12 00:14:41;;;;;;;;;;;;;;;12.88;73.65;100575.31;313628;31;3436;-74
2023/10/12 00:14:55;;;;;;;;;;;;;;;12.87;73.31;100581.47;314820;31;2648;-73
2023/10/12 00:15:18;;;;;;;;;;;;;;;12.85;73.52;100581.53;315155;31;1869;-73
2023/10/12 00:15:29;;;;;;;;;;;;;;;12.85;73.58;100576.28;309647;31;805;-73
2023/10/12 00:15:45;;;;;;;;;;;;;;;12.83;74.00;100585.97;309638;31;3621;-73
2023/10/12 00:15:56;;;;;;;;;;;;;;;12.84;73.92;100574.56;308499;31;4078;-74
2023/10/12 00:16:06;;;;;;;;;;;;;;;12.79;73.94;100576.50;308899;31;4206;-74
2023/10/12 00:16:18;;;;;;;;;;;;;;;12.80;73.85;100579.97;307381;32;1379;-73
2023/10/12 00:16:29;;;;;;;;;;;;;;;12.77;73.70;100583.56;304093;32;1292;-74
2023/10/12 00:16:42;;;;;;;;;;;;;;;12.78;73.79;100585.28;301051;32;4911;-74
2023/10/12 00:16:53;;;;;;;;;;;;;;;12.79;73.79;100584.38;301033;32;5035;-74
2023/10/12 00:17:05;;;;;;;;;;;;;;;12.78;74.14;100574.78;299128;32;3679;-74
2023/10/12 00:17:18;;;;;;;;;;;;;;;12.77;74.14;100587.97;299937;32;1366;-74
2023/10/12 00:17:28;;;;;;;;;;;;;;;12.74;74.13;100578.41;299182;33;861;-74
2023/10/12 00:17:39;;;;;;;;;;;;;;;12.75;74.06;100579.28;296026;33;3758;-74
2023/10/12 00:17:53;;;;;;;;;;;;;;;12.76;74.07;100581.84;292777;33;4970;-74
2023/10/12 00:18:08;;;;;;;;;;;;;;;12.77;74.02;100583.56;291356;33;5918;-74
2023/10/12 00:18:19;;;;;;;;;;;;;;;12.76;73.84;100581.00;293512;33;7471;-74
2023/10/12 00:18:31;;;;;;;;;;;;;;;12.77;73.95;100578.31;296120;33;842;-75
2023/10/12 00:18:45;;;;;;;;;;;;;;;12.78;73.90;100585.28;293157;33;5993;-75
2023/10/12 00:18:55;;;;;;;;;;;;;;;12.78;73.96;100579.16;293818;33;7112;-74
2023/10/12 00:19:11;;;;;;;;;;;;;;;12.78;73.69;100574.78;288596;33;7140;-74
2023/10/12 00:19:23;;;;;;;;;;;;;;;12.80;73.91;100575.56;289480;33;4884;-74
2023/10/12 00:19:33;;;;;;;;;;;;;;;12.79;73.97;100573.88;289508;34;4322;-74
2023/10/12 00:19:44;;;;;;;;;;;;;;;12.77;74.05;100580.94;286846;34;1159;-74
2023/10/12 00:19:54;;;;;;;;;;;;;;;12.75;73.69;100577.50;285604;34;5494;-74
2023/10/12 00:20:08;;;;;;;;;;;;;;;12.74;73.84;100578.41;284189;34;7317;-74
2023/10/12 00:20:32;;;;;;;;;;;;;;;12.73;73.71;100587.19;281991;34;8280;-74
2023/10/12 00:20:44;;;;;;;;;;;;;;;12.75;73.72;100584.53;280288;34;8888;-74
2023/10/12 00:22:24;;;;;;;;;;;;;;;12.70;74.54;100587.31;2488213;27;19952;-75
2023/10/12 00:22:36;;;;;;;;;;;;;;;12.71;74.55;100573.25;350424;28;4756;-74
2023/10/12 00:22:47;;;;;;;;;;;;;;;12.70;74.46;100576.81;351335;28;2923;-74
2023/10/12 00:23:09;;;;;;;;;;;;;;;12.71;74.39;100573.25;350260;28;1212;-74
2023/10/12 00:23:19;;;;;;;;;;;;;;;12.69;74.43;100569.81;347464;28;1263;-74
2023/10/12 00:23:33;;;;;;;;;;;;;;;12.69;74.61;100569.81;347456;28;1228;-74
2023/10/12 00:23:47;;;;;;;;;;;;;;;12.70;74.35;100575.94;350507;28;1259;-74
2023/10/12 00:23:57;;;;;;;;;;;;;;;12.68;74.38;100576.00;348927;28;946;-74
2023/10/12 00:24:07;;;;;;;;;;;;;;;12.68;74.63;100568.13;347491;28;832;-74
2023/10/12 00:24:18;;;;;;;;;;;;;;;12.71;74.58;100573.25;347830;28;1375;-74
2023/10/12 00:24:30;;;;;;;;;;;;;;;12.71;74.66;100572.41;347538;28;1219;-74
2023/10/12 00:24:40;;;;;;;;;;;;;;;12.68;74.73;100573.38;347625;28;753;-74
2023/10/12 00:24:52;;;;;;;;;;;;;;;12.68;74.62;100573.38;347543;28;876;-74
2023/10/12 00:25:04;;;;;;;;;;;;;;;12.65;74.87;100568.22;347581;28;847;-74
2023/10/12 00:25:17;;;;;;;;;;;;;;;12.68;74.74;100568.13;344683;28;1256;-74
2023/10/12 00:25:33;;;;;;;;;;;;;;;12.67;75.03;100566.41;346119;28;1353;-74
2023/10/12 00:25:47;;;;;;;;;;;;;;;12.68;74.86;100576.00;346306;28;832;-74
2023/10/12 00:25:58;;;;;;;;;;;;;;;12.67;74.74;100569.03;345804;28;1342;-74
2023/10/12 00:26:08;;;;;;;;;;;;;;;12.68;74.94;100570.75;347436;28;1221;-74
2023/10/12 00:26:18;;;;;;;;;;;;;;;12.70;74.87;100571.53;346787;28;1034;-74
2023/10/12 00:26:31;;;;;;;;;;;;;;;12.70;74.87;100568.91;346872;28;1218;-74
2023/10/12 00:26:42;;;;;;;;;;;;;;;12.69;74.83;100564.56;344873;28;1240;-74
2023/10/12 00:26:53;;;;;;;;;;;;;;;12.66;74.71;100565.53;342136;28;889;-74
2023/10/12 00:27:03;;;;;;;;;;;;;;;12.66;74.88;100570.78;343254;28;1480;-75
2023/10/12 00:27:14;;;;;;;;;;;;;;;12.64;74.98;100567.34;343478;28;1526;-74
2023/10/12 00:27:26;;;;;;;;;;;;;;;12.63;74.82;100564.78;343431;28;1436;-74
2023/10/12 00:27:40;;;;;;;;;;;;;;;12.61;74.73;100564.84;343007;28;1265;-74
2023/10/12 00:27:51;;;;;;;;;;;;;;;12.64;74.95;100571.75;346048;28;1389;-74
2023/10/12 00:28:03;;;;;;;;;;;;;;;12.64;74.93;100566.50;345173;28;1019;-74
2023/10/12 00:28:17;;;;;;;;;;;;;;;12.64;74.88;100563.88;346063;28;1502;-74
2023/10/12 00:28:37;;;;;;;;;;;;;;;12.64;74.90;100564.72;348168;28;1222;-74
2023/10/12 00:28:50;;;;;;;;;;;;;;;12.63;74.70;100565.63;344647;28;1506;-74
2023/10/12 00:29:02;;;;;;;;;;;;;;;12.64;74.99;100563.88;342523;28;1219;-74
2023/10/12 00:29:12;;;;;;;;;;;;;;;12.63;74.77;100564.78;339470;28;1360;-74
2023/10/12 00:29:23;;;;;;;;;;;;;;;12.62;74.68;100560.44;342154;28;1049;-74
2023/10/12 00:29:33;;;;;;;;;;;;;;;12.62;74.95;100566.56;340892;29;797;-74
2023/10/12 00:29:45;;;;;;;;;;;;;;;12.64;75.06;100571.75;342066;28;1337;-73
2023/10/12 00:29:55;;;;;;;;;;;;;;;12.60;75.00;100563.13;340703;29;856;-74
2023/10/12 00:30:05;;;;;;;;;;;;;;;12.60;74.73;100562.25;341672;28;978;-74
2023/10/12 00:30:17;;;;;;;;;;;;;;;12.60;74.54;100562.25;341910;28;1220;-74
2023/10/12 00:30:31;;;;;;;;;;;;;;;12.60;74.84;100567.50;339223;29;1235;-74
2023/10/12 00:30:41;;;;;;;;;;;;;;;12.58;75.05;100561.44;337201;29;1513;-73
2023/10/12 00:30:54;;;;;;;;;;;;;;;12.57;74.96;100565.84;339570;29;1708;-73
2023/10/12 00:31:16;;;;;;;;;;;;;;;12.58;74.92;100561.44;339965;29;1601;-74
2023/10/12 00:31:29;;;;;;;;;;;;;;;12.57;75.38;100562.34;336959;29;926;-74
2023/10/12 00:31:42;;;;;;;;;;;;;;;12.57;75.09;100560.59;333624;29;3258;-74
2023/10/12 00:31:52;;;;;;;;;;;;;;;12.58;75.23;100558.81;331900;29;4358;-74
2023/10/12 00:32:06;;;;;;;;;;;;;;;12.58;75.19;100566.72;334132;29;2892;-74
2023/10/12 00:32:16;;;;;;;;;;;;;;;12.57;75.37;100557.09;334868;29;2570;-74
2023/10/12 00:32:26;;;;;;;;;;;;;;;12.55;75.43;100556.34;335706;29;720;-74
2023/10/12 00:32:37;;;;;;;;;;;;;;;12.56;75.42;100558.06;337498;29;1910;-74
2023/10/12 00:32:47;;;;;;;;;;;;;;;12.56;75.29;100553.63;333350;29;2129;-74
2023/10/12 00:32:58;;;;;;;;;;;;;;;12.56;75.18;100558.06;332860;29;1209;-75
2023/10/12 00:33:08;;;;;;;;;;;;;;;12.55;75.06;100556.34;333134;29;855;-74
2023/10/12 00:33:18;;;;;;;;;;;;;;;12.55;75.25;100556.34;333570;29;2091;-74
2023/10/12 00:33:29;;;;;;;;;;;;;;;12.55;75.27;100561.59;334223;29;1730;-74
2023/10/12 00:33:39;;;;;;;;;;;;;;;12.56;76.03;100558.06;330388;29;1607;-74
2023/10/12 00:33:49;;;;;;;;;;;;;;;12.55;75.91;100557.19;331321;29;1065;-74
2023/10/12 00:34:02;;;;;;;;;;;;;;;12.55;75.83;100558.97;331536;29;1337;-74
2023/10/12 00:34:14;;;;;;;;;;;;;;;12.54;75.59;100560.72;331935;29;847;-74
2023/10/12 00:34:27;;;;;;;;;;;;;;;12.52;75.88;100554.66;330162;29;1501;-74
2023/10/12 00:34:38;;;;;;;;;;;;;;;12.51;76.10;100554.72;324121;30;2246;-74
2023/10/12 00:34:52;;;;;;;;;;;;;;;12.47;76.22;100558.34;324731;30;2023;-74
2023/10/12 00:35:04;;;;;;;;;;;;;;;12.48;75.90;100554.81;323433;30;2502;-74
2023/10/12 00:35:16;;;;;;;;;;;;;;;12.48;76.24;100549.56;321285;30;2743;-74
2023/10/12 00:35:27;;;;;;;;;;;;;;;12.48;76.65;100560.06;325701;30;852;-74
2023/10/12 00:35:37;;;;;;;;;;;;;;;12.48;76.46;100554.81;324299;30;2956;-74
2023/10/12 00:35:49;;;;;;;;;;;;;;;12.45;76.45;100558.41;321431;30;1815;-74
2023/10/12 00:36:11;;;;;;;;;;;;;;;12.48;76.14;100560.06;319481;30;1402;-74
2023/10/12 00:36:24;;;;;;;;;;;;;;;12.48;76.32;100560.94;317101;30;2050;-74
2023/10/12 00:36:37;;;;;;;;;;;;;;;12.48;76.42;100554.81;317241;31;2695;-74
2023/10/12 00:36:52;;;;;;;;;;;;;;;12.48;76.63;100565.31;314661;31;2873;-74
2023/10/12 00:37:03;;;;;;;;;;;;;;;12.47;76.54;100551.34;313932;31;2624;-74
2023/10/12 00:37:14;;;;;;;;;;;;;;;12.48;76.15;100557.44;315913;31;3229;-74
2023/10/12 00:37:24;;;;;;;;;;;;;;;12.47;76.05;100553.09;318058;31;1656;-74
2023/10/12 00:37:34;;;;;;;;;;;;;;;12.49;76.64;100551.28;314792;31;3602;-74
2023/10/12 00:37:45;;;;;;;;;;;;;;;12.47;76.39;100558.34;312216;31;3418;-74
2023/10/12 00:38:01;;;;;;;;;;;;;;;12.45;76.23;100550.53;314017;31;838;-74
2023/10/12 00:38:24;;;;;;;;;;;;;;;12.44;76.37;100558.47;311900;31;854;-74
2023/10/12 00:38:38;;;;;;;;;;;;;;;12.43;76.75;100551.50;309649;31;2770;-74
2023/10/12 00:38:49;;;;;;;;;;;;;;;12.40;76.64;100554.22;310535;31;3408;-74
2023/10/12 00:39:00;;;;;;;;;;;;;;;12.40;76.56;100556.84;307530;32;4192;-74
2023/10/12 00:39:11;;;;;;;;;;;;;;;12.38;76.59;100558.66;306347;32;1227;-74
2023/10/12 00:39:27;;;;;;;;;;;;;;;12.37;76.85;100554.31;302825;32;3926;-74
2023/10/12 00:40:23;;;;;;;;;;;;;;;12.39;76.87;100555.13;306581;32;4876;-73
2023/10/12 00:40:30;;;;;;;;;;;;;;;12.42;76.96;100560.28;298194;32;3110;-74
2023/10/12 00:40:48;;;;;;;;;;;;;;;12.43;76.91;100554.97;297999;33;1453;-74
2023/10/12 00:41:02;;;;;;;;;;;;;;;12.45;76.66;100554.91;294415;33;7804;-74
2023/10/12 00:41:17;;;;;;;;;;;;;;;12.44;76.57;100553.22;291218;33;4533;-74
2023/10/12 00:41:29;;;;;;;;;;;;;;;12.45;76.68;100544.41;286322;34;1334;-74
2023/10/12 00:41:44;;;;;;;;;;;;;;;12.45;76.30;100553.16;290317;34;809;-74
2023/10/12 00:41:55;;;;;;;;;;;;;;;12.46;76.34;100554.00;288283;34;951;-75
2023/10/12 00:42:06;;;;;;;;;;;;;;;12.47;76.34;100551.34;286456;34;6062;-75
2023/10/12 00:42:20;;;;;;;;;;;;;;;12.47;76.51;100553.09;286499;34;5391;-75
2023/10/12 00:42:34;;;;;;;;;;;;;;;12.48;76.56;100560.06;288068;34;4556;-75
2023/10/12 00:42:51;;;;;;;;;;;;;;;12.46;76.55;100556.63;284882;34;5075;-74
2023/10/12 00:43:01;;;;;;;;;;;;;;;12.44;76.58;100558.47;284188;34;6038;-74
2023/10/12 00:43:14;;;;;;;;;;;;;;;12.44;76.51;100553.22;287438;34;1007;-74
2023/10/12 00:43:32;;;;;;;;;;;;;;;12.45;76.53;100549.66;283628;34;1317;-74
2023/10/12 00:43:49;;;;;;;;;;;;;;;12.44;76.61;100553.22;281928;35;814;-74
2023/10/12 00:44:26;;;;;;;;;;;;;;;12.42;76.69;100550.63;281268;34;9415;-74
2023/10/12 00:44:34;;;;;;;;;;;;;;;12.36;76.71;100549.97;279358;35;7611;-74
2023/10/12 00:44:49;;;;;;;;;;;;;;;12.36;76.69;100550.84;279929;34;6534;-74
2023/10/12 00:47:43;;;;;;;;;;;;;;;12.23;76.93;100547.75;2503021;27;19927;-75
2023/10/12 00:47:54;;;;;;;;;;;;;;;12.24;76.66;100546.84;354211;27;1256;-75
2023/10/12 00:48:07;;;;;;;;;;;;;;;12.26;76.77;100542.41;353250;28;875;-75
2023/10/12 00:48:19;;;;;;;;;;;;;;;12.27;76.96;100548.50;351660;28;1286;-75
2023/10/12 00:48:30;;;;;;;;;;;;;;;12.26;76.82;100546.78;351859;28;851;-75
2023/10/12 00:48:47;;;;;;;;;;;;;;;12.26;76.88;100544.16;351777;28;819;-75
2023/10/12 00:49:20;;;;;;;;;;;;;;;12.25;77.20;100548.56;351660;28;843;-75
2023/10/12 00:49:29;;;;;;;;;;;;;;;12.24;76.77;100546.84;350268;28;1220;-75
2023/10/12 00:49:48;;;;;;;;;;;;;;;12.24;76.84;100543.34;351825;28;905;-75
2023/10/12 00:50:05;;;;;;;;;;;;;;;12.24;77.04;100546.84;353003;28;1261;-75
2023/10/12 00:50:16;;;;;;;;;;;;;;;12.24;76.56;100546.84;348237;28;4702;-74
2023/10/12 00:50:28;;;;;;;;;;;;;;;12.23;76.55;100541.63;347937;28;2766;-75
2023/10/12 00:50:38;;;;;;;;;;;;;;;12.18;76.92;100541.78;350278;28;1285;-76
2023/10/12 00:50:50;;;;;;;;;;;;;;;12.18;76.66;100543.56;348826;28;2930;-76
2023/10/12 00:51:00;;;;;;;;;;;;;;;12.15;76.57;100547.13;350227;28;785;-75
2023/10/12 00:51:14;;;;;;;;;;;;;;;12.18;76.75;100547.03;348709;28;1328;-75
2023/10/12 00:51:26;;;;;;;;;;;;;;;12.17;76.71;100540.06;347206;28;1420;-75
2023/10/12 00:51:36;;;;;;;;;;;;;;;12.19;76.68;100551.38;346966;28;1287;-75
2023/10/12 00:51:51;;;;;;;;;;;;;;;12.18;76.55;100547.03;345768;28;1436;-75
2023/10/12 00:52:08;;;;;;;;;;;;;;;12.17;76.46;100547.94;343720;28;1146;-75
2023/10/12 00:52:26;;;;;;;;;;;;;;;12.19;76.39;100547.88;344585;28;1176;-75
2023/10/12 00:52:55;;;;;;;;;;;;;;;12.17;76.34;100541.84;346850;28;1377;-75
2023/10/12 00:53:15;;;;;;;;;;;;;;;12.19;76.30;100538.25;345921;28;1278;-75
2023/10/12 00:53:31;;;;;;;;;;;;;;;12.22;76.44;100543.41;342254;28;857;-75
2023/10/12 00:53:52;;;;;;;;;;;;;;;12.22;76.40;100548.66;346514;28;1162;-74
2023/10/12 00:54:04;;;;;;;;;;;;;;;12.22;76.48;100543.41;346117;28;1057;-75
2023/10/12 00:54:25;;;;;;;;;;;;;;;12.23;76.20;100541.63;346229;28;841;-75
2023/10/12 00:55:13;;;;;;;;;;;;;;;12.24;76.15;100544.22;345866;28;1337;-75
2023/10/12 00:55:35;;;;;;;;;;;;;;;12.23;76.03;100542.50;343553;28;1646;-75
2023/10/12 00:55:45;;;;;;;;;;;;;;;12.22;76.31;100540.78;339351;29;1550;-74
2023/10/12 00:55:56;;;;;;;;;;;;;;;12.21;76.19;100541.69;336840;29;1537;-76
2023/10/12 00:56:06;;;;;;;;;;;;;;;12.20;76.32;100537.34;339275;29;1345;-75
2023/10/12 00:56:18;;;;;;;;;;;;;;;12.20;76.10;100545.22;340248;29;1977;-75
2023/10/12 00:56:28;;;;;;;;;;;;;;;12.18;76.13;100539.16;336334;29;1365;-75
2023/10/12 00:56:43;;;;;;;;;;;;;;;12.18;76.24;100544.41;339349;29;1394;-75
2023/10/12 00:56:54;;;;;;;;;;;;;;;12.17;76.35;100545.31;338171;29;992;-74
2023/10/12 00:57:09;;;;;;;;;;;;;;;12.18;76.23;100538.31;339794;29;1085;-74
2023/10/12 00:57:19;;;;;;;;;;;;;;;12.17;76.29;100544.47;340566;29;1489;-75
2023/10/12 00:57:31;;;;;;;;;;;;;;;12.16;76.08;100538.34;337251;29;1763;-75
2023/10/12 00:57:42;;;;;;;;;;;;;;;12.15;76.34;100539.25;334994;29;2094;-74
2023/10/12 00:57:52;;;;;;;;;;;;;;;12.17;76.11;100542.69;334221;29;1359;-74
2023/10/12 00:58:08;;;;;;;;;;;;;;;12.15;76.18;100541.88;331978;29;1871;-75
2023/10/12 00:58:22;;;;;;;;;;;;;;;12.11;76.43;100540.28;331561;29;2012;-74
2023/10/12 00:58:36;;;;;;;;;;;;;;;12.10;76.51;100543.81;333048;29;1712;-74
2023/10/12 00:58:47;;;;;;;;;;;;;;;12.10;76.28;100537.72;331599;29;1534;-75
2023/10/12 00:58:57;;;;;;;;;;;;;;;12.08;76.35;100540.38;334451;29;1141;-74
2023/10/12 00:59:08;;;;;;;;;;;;;;;12.08;76.64;100540.38;334312;29;1346;-75
2023/10/12 00:59:21;;;;;;;;;;;;;;;12.07;76.42;100543.91;330598;29;1801;-75
2023/10/12 00:59:34;;;;;;;;;;;;;;;12.04;76.37;100538.78;325235;29;6631;-74
2023/10/12 00:59:46;;;;;;;;;;;;;;;12.06;76.22;100531.72;324632;30;3368;-74
2023/10/12 00:59:57;;;;;;;;;;;;;;;12.04;76.29;100544.03;324013;30;2134;-75
2023/10/12 01:00:15;;;;;;;;;;;;;;;12.04;76.58;100544.03;324591;30;3013;-74
2023/10/12 01:00:26;;;;;;;;;;;;;;;12.06;76.30;100547.44;319634;30;2740;-74
2023/10/12 01:00:50;;;;;;;;;;;;;;;12.07;76.34;100543.91;322110;30;1528;-74
2023/10/12 01:01:04;;;;;;;;;;;;;;;12.08;77.02;100540.38;322610;30;1318;-74
2023/10/12 01:01:14;;;;;;;;;;;;;;;12.08;76.71;100540.38;325456;30;2074;-74
2023/10/12 01:01:25;;;;;;;;;;;;;;;12.07;77.12;100554.41;325145;30;2703;-74
2023/10/12 01:01:35;;;;;;;;;;;;;;;12.08;76.93;100539.53;323287;30;900;-74
2023/10/12 01:01:45;;;;;;;;;;;;;;;12.06;76.70;100542.22;323944;30;2983;-74
2023/10/12 01:01:55;;;;;;;;;;;;;;;12.05;76.76;100543.13;323693;30;2876;-75
2023/10/12 01:02:12;;;;;;;;;;;;;;;12.05;76.60;100548.38;324522;30;880;-75
2023/10/12 01:02:24;;;;;;;;;;;;;;;12.06;76.49;100543.97;318695;31;949;-74
2023/10/12 01:02:39;;;;;;;;;;;;;;;12.09;76.47;100547.34;318172;31;3381;-74
2023/10/12 01:03:06;;;;;;;;;;;;;;;12.07;76.40;100543.91;323008;30;3295;-74
2023/10/12 01:03:39;;;;;;;;;;;;;;;12.08;76.50;100542.16;317724;30;2167;-74
2023/10/12 01:03:50;;;;;;;;;;;;;;;12.08;76.32;100544.78;320439;30;4108;-74
2023/10/12 01:04:01;;;;;;;;;;;;;;;12.08;76.58;100547.41;321955;30;3822;-74
2023/10/12 01:04:16;;;;;;;;;;;;;;;12.06;76.56;100542.22;320333;30;4059;-74
2023/10/12 01:04:27;;;;;;;;;;;;;;;12.05;76.27;100545.75;317774;30;4478;-74
2023/10/12 01:04:39;;;;;;;;;;;;;;;12.06;76.25;100542.22;321474;30;1364;-74
2023/10/12 01:04:53;;;;;;;;;;;;;;;12.06;76.41;100549.22;319545;30;915;-74
2023/10/12 01:05:04;;;;;;;;;;;;;;;12.05;76.68;100550.13;316543;31;4196;-74
2023/10/12 01:05:17;;;;;;;;;;;;;;;12.06;76.76;100541.34;316570;31;3550;-74
2023/10/12 01:05:34;;;;;;;;;;;;;;;12.04;76.40;100554.50;315927;31;3262;-74
2023/10/12 01:05:57;;;;;;;;;;;;;;;12.06;76.36;100552.69;313532;31;4465;-74
2023/10/12 01:06:25;;;;;;;;;;;;;;;12.00;76.31;100542.41;307516;32;939;-74
2023/10/12 01:06:35;;;;;;;;;;;;;;;12.00;76.24;100545.03;309665;31;1302;-74
2023/10/12 01:06:47;;;;;;;;;;;;;;;11.99;76.27;100538.06;307647;31;6159;-75
2023/10/12 01:06:59;;;;;;;;;;;;;;;12.02;75.99;100545.84;305065;32;5699;-75
2023/10/12 01:07:11;;;;;;;;;;;;;;;12.02;76.10;100545.84;304268;32;797;-75
2023/10/12 01:07:25;;;;;;;;;;;;;;;12.00;76.21;100542.41;302166;32;1336;-75
2023/10/12 01:07:36;;;;;;;;;;;;;;;12.01;76.01;100544.13;299190;33;941;-75
2023/10/12 01:07:48;;;;;;;;;;;;;;;11.99;76.10;100538.91;296434;32;5136;-75
2023/10/12 01:07:58;;;;;;;;;;;;;;;12.01;75.99;100543.25;293512;33;6272;-75
2023/10/12 01:08:10;;;;;;;;;;;;;;;12.03;76.02;100546.69;292946;33;1461;-75
2023/10/12 01:08:20;;;;;;;;;;;;;;;12.04;76.04;100538.78;292051;33;1393;-75
2023/10/12 01:08:30;;;;;;;;;;;;;;;12.04;75.98;100538.78;291431;33;8206;-75
2023/10/12 01:08:43;;;;;;;;;;;;;;;12.05;75.81;100545.75;288321;33;8064;-75
2023/10/12 01:08:58;;;;;;;;;;;;;;;12.02;75.85;100545.84;288424;34;4969;-74
2023/10/12 01:09:18;;;;;;;;;;;;;;;11.96;76.30;100546.03;285503;34;896;-74
2023/10/12 01:09:39;;;;;;;;;;;;;;;11.95;76.16;100546.94;283058;34;8619;-75
2023/10/12 01:09:51;;;;;;;;;;;;;;;11.92;76.35;100537.38;285458;34;6879;-75
2023/10/12 01:12:14;;;;;;;;;;;;;;;11.91;76.37;100540.91;2498959;27;19932;-74
2023/10/12 01:12:32;;;;;;;;;;;;;;;11.92;76.29;100545.25;354449;27;1246;-74
2023/10/12 01:12:45;;;;;;;;;;;;;;;11.93;76.28;100536.47;353102;28;1488;-74
2023/10/12 01:12:57;;;;;;;;;;;;;;;11.95;76.33;100544.31;351621;28;1386;-74
2023/10/12 01:13:09;;;;;;;;;;;;;;;11.95;76.26;100545.16;350287;28;1349;-74
2023/10/12 01:13:20;;;;;;;;;;;;;;;11.95;76.20;100539.91;350450;28;825;-74
2023/10/12 01:13:33;;;;;;;;;;;;;;;11.95;76.16;100539.06;350415;28;1105;-75
2023/10/12 01:13:43;;;;;;;;;;;;;;;11.95;76.35;100539.06;350157;28;1287;-75
2023/10/12 01:14:09;;;;;;;;;;;;;;;11.95;75.98;100534.66;347398;28;1250;-75
2023/10/12 01:14:26;;;;;;;;;;;;;;;11.98;76.43;100531.94;348816;28;1490;-75
2023/10/12 01:14:39;;;;;;;;;;;;;;;12.01;76.17;100538.00;349568;28;839;-75
2023/10/12 01:14:54;;;;;;;;;;;;;;;12.04;76.13;100537.91;351627;28;831;-75
2023/10/12 01:15:09;;;;;;;;;;;;;;;12.00;75.97;100537.16;353052;28;1328;-75
2023/10/12 01:15:19;;;;;;;;;;;;;;;11.98;75.92;100536.34;353154;28;1059;-75
2023/10/12 01:15:31;;;;;;;;;;;;;;;11.99;75.94;100535.44;351785;28;824;-74
2023/10/12 01:15:46;;;;;;;;;;;;;;;11.98;75.88;100538.97;351551;28;923;-73
2023/10/12 01:15:58;;;;;;;;;;;;;;;11.97;75.97;100539.88;350064;28;1378;-75
2023/10/12 01:16:22;;;;;;;;;;;;;;;11.96;75.92;100540.78;350236;28;1041;-74
2023/10/12 01:17:04;;;;;;;;;;;;;;;11.94;76.40;100537.34;347063;28;1297;-74
2023/10/12 01:17:18;;;;;;;;;;;;;;;11.93;76.04;100533.00;347328;28;1352;-74
2023/10/12 01:17:34;;;;;;;;;;;;;;;11.93;76.04;100540.88;347275;28;875;-74
2023/10/12 01:17:45;;;;;;;;;;;;;;;11.92;76.21;100531.28;346038;28;1279;-74
2023/10/12 01:17:59;;;;;;;;;;;;;;;11.90;76.17;100536.56;345675;28;2627;-74
2023/10/12 01:18:11;;;;;;;;;;;;;;;11.88;76.41;100541.00;344467;28;4317;-74
2023/10/12 01:18:28;;;;;;;;;;;;;;;11.86;76.28;100536.72;346669;28;4510;-74
2023/10/12 01:18:38;;;;;;;;;;;;;;;11.85;76.46;100532.38;345552;28;4688;-74
2023/10/12 01:19:05;;;;;;;;;;;;;;;11.83;76.42;100534.19;342880;28;1042;-74
2023/10/12 01:19:22;;;;;;;;;;;;;;;11.85;76.29;100537.63;342146;28;844;-74
2023/10/12 01:19:34;;;;;;;;;;;;;;;11.87;76.33;100541.06;344892;28;1324;-74
2023/10/12 01:19:47;;;;;;;;;;;;;;;11.87;76.52;100541.91;344915;28;742;-74
2023/10/12 01:19:57;;;;;;;;;;;;;;;11.85;76.32;100537.63;343278;28;1066;-74
2023/10/12 01:20:11;;;;;;;;;;;;;;;11.86;76.36;100536.72;345259;28;1207;-74
2023/10/12 01:20:26;;;;;;;;;;;;;;;11.85;76.76;100540.25;343099;28;1533;-74
2023/10/12 01:20:39;;;;;;;;;;;;;;;11.86;76.50;100540.19;339285;28;1502;-74